GMMX

Details ICAO GMMX (RAK)
Name MENARA
Region Morocco
Timezone Africa/Casablanca (UTC+0.0)
Plans Departing 1186
Arriving 1575
Stats Elevation 1,544 ft / 471 m (AMSL)
Location 31.606900° -8.036270°
Runways 1
Magnetic Variation 1.563° W
Sunrise 2021-12-01 07:15:26 UTC / 2021-12-01 07:15:26 Local
Sunset 2021-12-01 17:29:58 UTC / 2021-12-01 17:29:58 Local
Advertisement - Login to hide

Runways

ID Width Length Bearing (true/mag) Surface Threshold Overrun Markings Lighting
10 147 ft / 45 m 10,123 ft / 3,085 m 95.92° / 97.48° ASPHALT 0 ft / 0 m 33 ft / 10 m PREC-APP EDGE THRESHOLD
28 147 ft / 45 m 10,123 ft / 3,085 m 275.93° / 277.50° ASPHALT 0 ft / 0 m 20 ft / 6 m APP EDGE THRESHOLD

Approach Navaids

Runway Type Ident Frequency Range Bearing (true/mag) Slope Elevation
10 GS MAR 109.70 MHz 10 nm / 19 km 95.92° / 97.48° 3.00° 1,545 ft / 471 m (AMSL)
10 OM OM - - 96.00° / 97.56° - 1,545 ft / 471 m (AMSL)
10 LOC-ILS MAR 109.70 MHz 18 nm / 33 km 96.03° / 97.59° - 1,545 ft / 471 m (AMSL)
10 MM MM - - 96.00° / 97.56° - 1,545 ft / 471 m (AMSL)

Map

Weather


0- 5 10 15 20 25 30 35+ Temperature / °C

Clouds and Precipitation
Forecast for 2021-12-01 06:00 UTC. Updated 3 hours ago

Ground ~20,000 ft ~40,000 ft Winds

METAR

GMMX 010630Z 10004KT CAVOK 05/01 Q1025 NOSIG

TAF

TAF GMMX 010500Z 0106/0212 30006KT CAVOK= TAF LFOB 010500Z 0106/0206 22020G33KT 3000 RADZ BKN004 OVC010 BECMG 0106/0108 28017G27KT 9999 NSW BKN020 TEMPO 0107/0124 3000 SHRA BKN013CB BECMG 0114/0116 27010KT BECMG 0121/0124 33010KT

Frequencies

Approach 119.70 MHz MARRAKECH APP
Tower 118.70 MHz MARRAKECH TWR
Ground 118.70 MHz MARRAKECH GND
Recorded 121.95 MHz MARRAKECH ATIS
Warning: Do not use this data for real-world aviation or navigation. No guarantee of current accuracy is given.